Time,TemperatureF,DewpointF,PressureIn,WindDirection,WindDirectionDegrees,WindSpeedMPH,WindSpeedGustMPH,Humidity,HourlyPrecipIn,Conditions,Clouds,dailyrainin,SoftwareType,DateUTC
2013-02-17 00:00:00,25.0,11.5,30.21,WNW,284,1.0,1.0,56,0.00,,,0.00,Wunderground v.1.15,2013-02-17 06:00:00,
2013-02-17 00:06:00,24.6,11.5,30.21,WNW,285,1.0,13.0,57,0.00,,,0.00,Wunderground v.1.15,2013-02-17 06:06:00,
2013-02-17 00:11:00,24.7,11.6,30.21,WNW,284,0.0,13.0,57,0.00,,,0.00,Wunderground v.1.15,2013-02-17 06:11:00,
2013-02-17 00:17:00,24.4,12.1,30.22,WNW,293,0.0,13.0,59,0.00,,,0.00,Wunderground v.1.15,2013-02-17 06:17:00,
2013-02-17 00:22:00,24.7,11.2,30.22,West,280,1.0,13.0,56,0.00,,,0.00,Wunderground v.1.15,2013-02-17 06:22:00,
2013-02-17 00:28:00,25.4,11.0,30.22,West,278,1.0,13.0,54,0.00,,,0.00,Wunderground v.1.15,2013-02-17 06:28:00,
2013-02-17 00:33:00,25.6,10.8,30.22,WNW,283,1.0,13.0,53,0.00,,,0.00,Wunderground v.1.15,2013-02-17 06:33:00,
2013-02-17 00:39:00,25.4,10.6,30.22,WNW,289,1.0,13.0,53,0.00,,,0.00,Wunderground v.1.15,2013-02-17 06:39:00,
2013-02-17 00:45:00,25.0,10.7,30.22,WNW,289,0.0,13.0,54,0.00,,,0.00,Wunderground v.1.15,2013-02-17 06:45:00,
2013-02-17 00:50:00,24.6,11.5,30.22,NW,314,0.0,13.0,57,0.00,,,0.00,Wunderground v.1.15,2013-02-17 06:50:00,
2013-02-17 00:56:00,24.3,10.8,30.22,NW,306,1.0,13.0,56,0.00,,,0.00,Wunderground v.1.15,2013-02-17 06:56:00,
2013-02-17 01:01:00,23.9,11.6,30.22,West,271,0.0,13.0,59,0.00,,,0.00,Wunderground v.1.15,2013-02-17 07:01:00,
2013-02-17 01:07:00,23.5,12.0,30.22,NW,306,1.0,13.0,61,0.00,,,0.00,Wunderground v.1.15,2013-02-17 07:07:00,
2013-02-17 01:12:00,23.6,10.6,30.22,NW,304,1.0,13.0,57,0.00,,,0.00,Wunderground v.1.15,2013-02-17 07:12:00,
2013-02-17 01:18:00,23.9,10.9,30.22,WNW,288,1.0,13.0,57,0.00,,,0.00,Wunderground v.1.15,2013-02-17 07:18:00,
2013-02-17 01:23:00,24.4,10.9,30.22,West,264,1.0,13.0,56,0.00,,,0.00,Wunderground v.1.15,2013-02-17 07:23:00,
2013-02-17 01:29:00,25.0,10.7,30.22,WNW,287,2.0,13.0,54,0.00,,,0.00,Wunderground v.1.15,2013-02-17 07:29:00,
2013-02-17 01:34:00,24.8,10.9,30.22,WNW,282,1.0,13.0,55,0.00,,,0.00,Wunderground v.1.15,2013-02-17 07:34:00,
2013-02-17 01:40:00,24.5,11.0,30.22,WNW,289,1.0,13.0,56,0.00,,,0.00,Wunderground v.1.15,2013-02-17 07:40:00,
2013-02-17 01:45:00,24.7,11.6,30.22,WNW,290,2.0,13.0,57,0.00,,,0.00,Wunderground v.1.15,2013-02-17 07:45:00,
2013-02-17 01:51:00,25.0,11.5,30.22,WNW,292,2.0,13.0,56,0.00,,,0.00,Wunderground v.1.15,2013-02-17 07:51:00,
2013-02-17 01:56:00,24.9,11.4,30.23,WNW,284,1.0,13.0,56,0.00,,,0.00,Wunderground v.1.15,2013-02-17 07:56:00,
2013-02-17 02:02:00,24.8,11.3,30.22,WNW,292,1.0,13.0,56,0.00,,,0.00,Wunderground v.1.15,2013-02-17 08:02:00,
2013-02-17 02:07:00,24.8,11.3,30.22,WNW,295,1.0,13.0,56,0.00,,,0.00,Wunderground v.1.15,2013-02-17 08:07:00,
2013-02-17 02:13:00,24.6,11.1,30.23,WNW,284,1.0,13.0,56,0.00,,,0.00,Wunderground v.1.15,2013-02-17 08:13:00,
2013-02-17 02:19:00,24.7,11.2,30.23,West,278,2.0,13.0,56,0.00,,,0.00,Wunderground v.1.15,2013-02-17 08:19:00,
2013-02-17 02:24:00,24.6,11.5,30.23,WNW,287,2.0,13.0,57,0.00,,,0.00,Wunderground v.1.15,2013-02-17 08:24:00,
2013-02-17 02:30:00,24.5,11.4,30.23,West,274,2.0,13.0,57,0.00,,,0.00,Wunderground v.1.15,2013-02-17 08:30:00,
2013-02-17 02:35:00,24.4,11.7,30.23,West,275,1.0,13.0,58,0.00,,,0.00,Wunderground v.1.15,2013-02-17 08:35:00,
2013-02-17 02:41:00,24.0,11.7,30.23,West,279,1.0,13.0,59,0.00,,,0.00,Wunderground v.1.15,2013-02-17 08:41:00,
2013-02-17 02:46:00,23.6,11.7,30.22,WNW,285,1.0,13.0,60,0.00,,,0.00,Wunderground v.1.15,2013-02-17 08:46:00,
2013-02-17 02:52:00,23.3,11.8,30.22,WNW,290,2.0,13.0,61,0.00,,,0.00,Wunderground v.1.15,2013-02-17 08:52:00,
2013-02-17 02:58:00,23.3,12.2,30.22,West,277,2.0,13.0,62,0.00,,,0.00,Wunderground v.1.15,2013-02-17 08:58:00,
2013-02-17 03:03:00,23.1,12.4,30.22,NW,306,2.0,13.0,63,0.00,,,0.00,Wunderground v.1.15,2013-02-17 09:03:00,
2013-02-17 03:08:00,22.9,12.2,30.22,WNW,296,2.0,13.0,63,0.00,,,0.00,Wunderground v.1.15,2013-02-17 09:08:00,
2013-02-17 03:14:00,22.9,12.2,30.23,WNW,283,2.0,13.0,63,0.00,,,0.00,Wunderground v.1.15,2013-02-17 09:14:00,
2013-02-17 03:19:00,22.9,12.2,30.23,WNW,287,2.0,13.0,63,0.00,,,0.00,Wunderground v.1.15,2013-02-17 09:19:00,
2013-02-17 03:24:00,23.0,12.3,30.23,West,264,2.0,13.0,63,0.00,,,0.00,Wunderground v.1.15,2013-02-17 09:24:00,
2013-02-17 03:30:00,22.9,12.2,30.23,WNW,293,2.0,2.0,63,0.00,,,0.00,Wunderground v.1.15,2013-02-17 09:30:00,
2013-02-17 03:35:00,22.7,12.0,30.23,West,280,2.0,13.0,63,0.00,,,0.00,Wunderground v.1.15,2013-02-17 09:35:00,
2013-02-17 03:41:00,22.6,12.2,30.23,West,274,2.0,13.0,64,0.00,,,0.00,Wunderground v.1.15,2013-02-17 09:41:00,
2013-02-17 03:46:00,22.4,12.1,30.23,WNW,285,2.0,13.0,64,0.00,,,0.00,Wunderground v.1.15,2013-02-17 09:46:00,
2013-02-17 03:52:00,22.1,12.1,30.23,WNW,292,2.0,13.0,65,0.00,,,0.00,Wunderground v.1.15,2013-02-17 09:52:00,
2013-02-17 03:57:00,22.1,12.1,30.23,WNW,295,2.0,13.0,65,0.00,,,0.00,Wunderground v.1.15,2013-02-17 09:57:00,
2013-02-17 04:02:00,22.2,12.2,30.23,WNW,285,2.0,13.0,65,0.00,,,0.00,Wunderground v.1.15,2013-02-17 10:02:00,
2013-02-17 04:08:00,22.5,11.8,30.23,WNW,293,2.0,13.0,63,0.00,,,0.00,Wunderground v.1.15,2013-02-17 10:08:00,
2013-02-17 04:14:00,22.5,11.8,30.24,WNW,292,2.0,13.0,63,0.00,,,0.00,Wunderground v.1.15,2013-02-17 10:14:00,
2013-02-17 04:19:00,22.5,11.8,30.24,WNW,292,2.0,13.0,63,0.00,,,0.00,Wunderground v.1.15,2013-02-17 10:19:00,
2013-02-17 04:25:00,22.3,11.6,30.24,WNW,292,2.0,13.0,63,0.00,,,0.00,Wunderground v.1.15,2013-02-17 10:25:00,
2013-02-17 04:30:00,22.4,11.7,30.24,WNW,290,1.0,1.0,63,0.00,,,0.00,Wunderground v.1.15,2013-02-17 10:30:00,
2013-02-17 04:35:00,22.1,11.4,30.24,WNW,289,0.0,13.0,63,0.00,,,0.00,Wunderground v.1.15,2013-02-17 10:35:00,
2013-02-17 04:41:00,22.0,11.7,30.24,WNW,294,1.0,13.0,64,0.00,,,0.00,Wunderground v.1.15,2013-02-17 10:41:00,
2013-02-17 04:46:00,22.0,11.7,30.25,WNW,292,1.0,13.0,64,0.00,,,0.00,Wunderground v.1.15,2013-02-17 10:46:00,
2013-02-17 04:51:00,21.9,11.6,30.25,WNW,296,1.0,13.0,64,0.00,,,0.00,Wunderground v.1.15,2013-02-17 10:51:00,
2013-02-17 04:57:00,22.1,11.8,30.25,WNW,284,2.0,13.0,64,0.00,,,0.00,Wunderground v.1.15,2013-02-17 10:57:00,
2013-02-17 05:02:00,22.4,11.7,30.25,WNW,292,2.0,13.0,63,0.00,,,0.00,Wunderground v.1.15,2013-02-17 11:02:00,
2013-02-17 05:08:00,22.3,11.6,30.25,WNW,296,2.0,13.0,63,0.00,,,0.00,Wunderground v.1.15,2013-02-17 11:08:00,
2013-02-17 05:13:00,22.4,11.3,30.25,WNW,293,1.0,13.0,62,0.00,,,0.00,Wunderground v.1.15,2013-02-17 11:13:00,
2013-02-17 05:18:00,22.3,11.6,30.25,WNW,293,1.0,13.0,63,0.00,,,0.00,Wunderground v.1.15,2013-02-17 11:18:00,
2013-02-17 05:24:00,20.9,12.3,30.25,NNW,328,0.0,13.0,69,0.00,,,0.00,Wunderground v.1.15,2013-02-17 11:24:00,
2013-02-17 05:29:00,19.5,12.9,30.26,WNW,301,1.0,13.0,75,0.00,,,0.00,Wunderground v.1.15,2013-02-17 11:29:00,
2013-02-17 05:35:00,18.8,13.4,30.26,NW,313,1.0,13.0,79,0.00,,,0.00,Wunderground v.1.15,2013-02-17 11:35:00,
2013-02-17 05:40:00,18.7,13.3,30.26,NW,320,1.0,13.0,79,0.00,,,0.00,Wunderground v.1.15,2013-02-17 11:40:00,
2013-02-17 05:45:00,18.9,13.2,30.26,NNW,345,1.0,13.0,78,0.00,,,0.00,Wunderground v.1.15,2013-02-17 11:45:00,
2013-02-17 05:51:00,19.1,13.1,30.27,NW,313,1.0,13.0,77,0.00,,,0.00,Wunderground v.1.15,2013-02-17 11:51:00,
2013-02-17 05:56:00,19.2,12.9,30.26,WNW,292,0.0,13.0,76,0.00,,,0.00,Wunderground v.1.15,2013-02-17 11:56:00,
2013-02-17 06:02:00,19.0,12.7,30.27,WNW,292,0.0,13.0,76,0.00,,,0.00,Wunderground v.1.15,2013-02-17 12:02:00,
2013-02-17 06:07:00,18.9,12.6,30.27,WNW,292,0.0,13.0,76,0.00,,,0.00,Wunderground v.1.15,2013-02-17 12:07:00,
2013-02-17 06:12:00,19.0,12.7,30.27,WNW,292,0.0,13.0,76,0.00,,,0.00,Wunderground v.1.15,2013-02-17 12:12:00,
2013-02-17 06:18:00,18.9,12.6,30.27,WNW,292,0.0,13.0,76,0.00,,,0.00,Wunderground v.1.15,2013-02-17 12:18:00,
2013-02-17 06:23:00,18.8,12.8,30.27,WNW,292,0.0,13.0,77,0.00,,,0.00,Wunderground v.1.15,2013-02-17 12:23:00,
2013-02-17 06:29:00,18.8,13.1,30.27,WNW,283,1.0,13.0,78,0.00,,,0.00,Wunderground v.1.15,2013-02-17 12:29:00,
2013-02-17 06:34:00,18.7,13.0,30.27,WNW,283,1.0,13.0,78,0.00,,,0.00,Wunderground v.1.15,2013-02-17 12:34:00,
2013-02-17 06:40:00,18.7,13.0,30.28,West,277,1.0,13.0,78,0.00,,,0.00,Wunderground v.1.15,2013-02-17 12:40:00,
2013-02-17 06:45:00,18.8,13.1,30.28,West,280,1.0,13.0,78,0.00,,,0.00,Wunderground v.1.15,2013-02-17 12:45:00,
2013-02-17 06:51:00,18.9,12.9,30.28,WNW,292,1.0,13.0,77,0.00,,,0.00,Wunderground v.1.15,2013-02-17 12:51:00,
2013-02-17 06:56:00,19.2,12.9,30.28,WNW,287,1.0,13.0,76,0.00,,,0.00,Wunderground v.1.15,2013-02-17 12:56:00,
2013-02-17 07:01:00,19.6,12.7,30.29,WNW,292,1.0,13.0,74,0.00,,,0.00,Wunderground v.1.15,2013-02-17 13:01:00,
2013-02-17 07:07:00,19.8,13.2,30.28,West,280,0.0,13.0,75,0.00,,,0.00,Wunderground v.1.15,2013-02-17 13:07:00,
2013-02-17 07:12:00,19.8,14.0,30.29,West,280,0.0,13.0,78,0.00,,,0.00,Wunderground v.1.15,2013-02-17 13:12:00,
2013-02-17 07:17:00,19.3,13.9,30.29,West,280,1.0,13.0,79,0.00,,,0.00,Wunderground v.1.15,2013-02-17 13:17:00,
2013-02-17 07:23:00,19.3,13.9,30.29,WNW,282,1.0,13.0,79,0.00,,,0.00,Wunderground v.1.15,2013-02-17 13:23:00,
2013-02-17 07:28:00,19.9,13.9,30.30,West,275,1.0,13.0,77,0.00,,,0.00,Wunderground v.1.15,2013-02-17 13:28:00,
2013-02-17 07:34:00,20.8,14.7,30.30,West,276,1.0,13.0,77,0.00,,,0.00,Wunderground v.1.15,2013-02-17 13:34:00,
2013-02-17 07:39:00,21.4,15.3,30.30,West,275,2.0,13.0,77,0.00,,,0.00,Wunderground v.1.15,2013-02-17 13:39:00,
2013-02-17 07:45:00,22.2,15.5,30.30,SW,229,3.0,13.0,75,0.00,,,0.00,Wunderground v.1.15,2013-02-17 13:45:00,
2013-02-17 07:50:00,22.9,14.9,30.31,West,275,3.0,13.0,71,0.00,,,0.00,Wunderground v.1.15,2013-02-17 13:50:00,
2013-02-17 07:56:00,23.4,15.1,30.31,SW,221,4.0,13.0,70,0.00,,,0.00,Wunderground v.1.15,2013-02-17 13:56:00,
2013-02-17 08:01:00,23.4,15.1,30.31,WSW,246,5.0,13.0,70,0.00,,,0.00,Wunderground v.1.15,2013-02-17 14:01:00,
2013-02-17 08:06:00,23.5,15.5,30.31,West,262,5.0,13.0,71,0.00,,,0.00,Wunderground v.1.15,2013-02-17 14:06:00,
2013-02-17 08:12:00,23.8,15.8,30.31,West,276,5.0,13.0,71,0.00,,,0.00,Wunderground v.1.15,2013-02-17 14:12:00,
2013-02-17 08:17:00,24.2,16.1,30.32,WNW,282,5.0,13.0,71,0.00,,,0.00,Wunderground v.1.15,2013-02-17 14:17:00,
2013-02-17 08:23:00,24.5,16.4,30.32,West,275,4.0,13.0,71,0.00,,,0.00,Wunderground v.1.15,2013-02-17 14:23:00,
2013-02-17 08:28:00,25.0,16.6,30.32,West,259,5.0,13.0,70,0.00,,,0.00,Wunderground v.1.15,2013-02-17 14:28:00,
2013-02-17 08:33:00,25.4,16.3,30.32,West,259,5.0,13.0,68,0.00,,,0.00,Wunderground v.1.15,2013-02-17 14:33:00,
2013-02-17 08:39:00,26.2,16.7,30.32,WSW,257,5.0,13.0,67,0.00,,,0.00,Wunderground v.1.15,2013-02-17 14:39:00,
2013-02-17 08:44:00,26.8,16.6,30.32,West,269,4.0,13.0,65,0.00,,,0.00,Wunderground v.1.15,2013-02-17 14:44:00,
2013-02-17 08:50:00,27.6,16.6,30.32,West,259,5.0,5.0,63,0.00,,,0.00,Wunderground v.1.15,2013-02-17 14:50:00,
2013-02-17 08:55:00,28.6,18.3,30.32,WSW,257,4.0,13.0,65,0.00,,,0.00,Wunderground v.1.15,2013-02-17 14:55:00,
2013-02-17 09:01:00,29.3,16.3,30.32,SSW,202,4.0,13.0,58,0.00,,,0.00,Wunderground v.1.15,2013-02-17 15:01:00,
2013-02-17 09:06:00,29.6,16.2,30.32,SW,227,4.0,13.0,57,0.00,,,0.00,Wunderground v.1.15,2013-02-17 15:06:00,
2013-02-17 09:12:00,30.2,16.0,30.32,WSW,254,5.0,13.0,55,0.00,,,0.00,Wunderground v.1.15,2013-02-17 15:12:00,
2013-02-17 09:17:00,30.6,16.7,30.32,SSW,207,4.0,13.0,56,0.00,,,0.00,Wunderground v.1.15,2013-02-17 15:17:00,
2013-02-17 09:23:00,31.4,17.5,30.33,West,275,4.0,13.0,56,0.00,,,0.00,Wunderground v.1.15,2013-02-17 15:23:00,
2013-02-17 09:28:00,32.1,18.2,30.33,WSW,243,4.0,13.0,56,0.00,,,0.00,Wunderground v.1.15,2013-02-17 15:28:00,
2013-02-17 09:34:00,32.5,17.7,30.32,SW,230,4.0,13.0,54,0.00,,,0.00,Wunderground v.1.15,2013-02-17 15:34:00,
2013-02-17 09:40:00,32.4,17.6,30.32,West,260,5.0,5.0,54,0.00,,,0.00,Wunderground v.1.15,2013-02-17 15:40:00,
2013-02-17 09:45:00,33.0,17.7,30.33,WNW,303,5.0,13.0,53,0.00,,,0.00,Wunderground v.1.15,2013-02-17 15:45:00,
2013-02-17 09:51:00,33.5,17.7,30.32,West,278,4.0,5.0,52,0.00,,,0.00,Wunderground v.1.15,2013-02-17 15:51:00,
2013-02-17 09:56:00,34.2,17.5,30.32,NW,313,3.0,13.0,50,0.00,,,0.00,Wunderground v.1.15,2013-02-17 15:56:00,
2013-02-17 10:02:00,35.2,18.4,30.32,West,280,2.0,13.0,50,0.00,,,0.00,Wunderground v.1.15,2013-02-17 16:02:00,
2013-02-17 10:08:00,35.5,16.7,30.32,West,279,3.0,13.0,46,0.00,,,0.00,Wunderground v.1.15,2013-02-17 16:08:00,
2013-02-17 10:13:00,36.4,17.6,30.32,WNW,292,4.0,13.0,46,0.00,,,0.00,Wunderground v.1.15,2013-02-17 16:13:00,
2013-02-17 10:19:00,36.5,16.1,30.32,North,351,3.0,13.0,43,0.00,,,0.00,Wunderground v.1.15,2013-02-17 16:19:00,
2013-02-17 10:24:00,36.6,15.6,30.32,NE,56,5.0,13.0,42,0.00,,,0.00,Wunderground v.1.15,2013-02-17 16:24:00,
2013-02-17 10:30:00,37.0,15.5,30.32,NW,309,6.0,13.0,41,0.00,,,0.00,Wunderground v.1.15,2013-02-17 16:30:00,
2013-02-17 10:35:00,36.8,14.7,30.32,North,355,6.0,13.0,40,0.00,,,0.00,Wunderground v.1.15,2013-02-17 16:35:00,
2013-02-17 10:41:00,36.8,14.1,30.32,NNW,344,6.0,13.0,39,0.00,,,0.00,Wunderground v.1.15,2013-02-17 16:41:00,
2013-02-17 10:46:00,37.4,14.7,30.32,NW,309,5.0,13.0,39,0.00,,,0.00,Wunderground v.1.15,2013-02-17 16:46:00,
2013-02-17 10:52:00,37.9,13.3,30.32,NNW,333,4.0,13.0,36,0.00,,,0.00,Wunderground v.1.15,2013-02-17 16:52:00,
2013-02-17 10:57:00,37.8,13.2,30.32,North,356,5.0,13.0,36,0.00,,,0.00,Wunderground v.1.15,2013-02-17 16:57:00,
2013-02-17 11:03:00,38.0,13.4,30.31,North,2,5.0,13.0,36,0.00,,,0.00,Wunderground v.1.15,2013-02-17 17:03:00,
2013-02-17 11:08:00,38.0,14.0,30.31,NNW,348,6.0,13.0,37,0.00,,,0.00,Wunderground v.1.15,2013-02-17 17:08:00,
2013-02-17 11:14:00,38.5,13.8,30.31,North,356,5.0,13.0,36,0.00,,,0.00,Wunderground v.1.15,2013-02-17 17:14:00,
2013-02-17 11:19:00,38.4,12.4,30.31,NW,314,4.0,13.0,34,0.00,,,0.00,Wunderground v.1.15,2013-02-17 17:19:00,
2013-02-17 11:25:00,38.8,13.4,30.30,NW,317,4.0,13.0,35,0.00,,,0.00,Wunderground v.1.15,2013-02-17 17:25:00,
2013-02-17 11:30:00,39.4,13.3,30.30,NNW,345,4.0,4.0,34,0.00,,,0.00,Wunderground v.1.15,2013-02-17 17:30:00,
2013-02-17 11:36:00,40.0,13.2,30.30,NNW,339,4.0,13.0,33,0.00,,,0.00,Wunderground v.1.15,2013-02-17 17:36:00,
2013-02-17 11:41:00,40.4,11.4,30.30,WNW,300,3.0,13.0,30,0.00,,,0.00,Wunderground v.1.15,2013-02-17 17:41:00,
2013-02-17 11:47:00,40.3,12.7,30.30,WNW,300,3.0,13.0,32,0.00,,,0.00,Wunderground v.1.15,2013-02-17 17:47:00,
2013-02-17 11:52:00,40.4,13.5,30.30,NW,310,4.0,13.0,33,0.00,,,0.00,Wunderground v.1.15,2013-02-17 17:52:00,
2013-02-17 11:58:00,39.9,11.7,30.29,NW,324,5.0,13.0,31,0.00,,,0.00,Wunderground v.1.15,2013-02-17 17:58:00,
2013-02-17 12:03:00,40.4,12.8,30.29,NW,305,5.0,13.0,32,0.00,,,0.00,Wunderground v.1.15,2013-02-17 18:03:00,
2013-02-17 12:09:00,40.5,13.6,30.29,WNW,291,3.0,13.0,33,0.00,,,0.00,Wunderground v.1.15,2013-02-17 18:09:00,
2013-02-17 12:14:00,41.3,13.6,30.28,NW,317,2.0,13.0,32,0.00,,,0.00,Wunderground v.1.15,2013-02-17 18:14:00,
2013-02-17 12:20:00,41.7,11.7,30.28,WNW,296,3.0,3.0,29,0.00,,,0.00,Wunderground v.1.15,2013-02-17 18:20:00,
2013-02-17 12:25:00,41.9,11.9,30.27,NW,317,3.0,13.0,29,0.00,,,0.00,Wunderground v.1.15,2013-02-17 18:25:00,
2013-02-17 12:30:00,41.8,12.6,30.27,NNW,338,3.0,13.0,30,0.00,,,0.00,Wunderground v.1.15,2013-02-17 18:30:00,
2013-02-17 12:36:00,41.8,11.0,30.26,NE,52,4.0,13.0,28,0.00,,,0.00,Wunderground v.1.15,2013-02-17 18:36:00,
2013-02-17 12:41:00,41.6,12.4,30.26,NW,304,4.0,13.0,30,0.00,,,0.00,Wunderground v.1.15,2013-02-17 18:41:00,
2013-02-17 12:47:00,42.2,13.7,30.26,NW,313,4.0,13.0,31,0.00,,,0.00,Wunderground v.1.15,2013-02-17 18:47:00,
2013-02-17 12:53:00,42.5,12.4,30.26,NW,319,4.0,13.0,29,0.00,,,0.00,Wunderground v.1.15,2013-02-17 18:53:00,
2013-02-17 12:58:00,42.3,13.0,30.26,North,358,4.0,13.0,30,0.00,,,0.00,Wunderground v.1.15,2013-02-17 18:58:00,
2013-02-17 13:04:00,42.5,13.9,30.25,NW,310,3.0,13.0,31,0.00,,,0.00,Wunderground v.1.15,2013-02-17 19:04:00,
2013-02-17 13:09:00,43.7,13.5,30.25,WNW,299,3.0,13.0,29,0.00,,,0.00,Wunderground v.1.15,2013-02-17 19:09:00,
2013-02-17 13:15:00,43.8,13.6,30.25,NW,306,3.0,13.0,29,0.00,,,0.00,Wunderground v.1.15,2013-02-17 19:15:00,
2013-02-17 13:20:00,44.0,12.1,30.25,WNW,303,3.0,3.0,27,0.00,,,0.00,Wunderground v.1.15,2013-02-17 19:20:00,
2013-02-17 13:26:00,43.6,11.8,30.25,WNW,292,4.0,13.0,27,0.00,,,0.00,Wunderground v.1.15,2013-02-17 19:26:00,
2013-02-17 13:31:00,43.5,12.5,30.25,NW,304,5.0,6.0,28,0.00,,,0.00,Wunderground v.1.15,2013-02-17 19:31:00,
2013-02-17 13:37:00,44.2,13.1,30.25,NW,314,4.0,13.0,28,0.00,,,0.00,Wunderground v.1.15,2013-02-17 19:37:00,
2013-02-17 13:42:00,43.6,12.6,30.25,West,265,3.0,13.0,28,0.00,,,0.00,Wunderground v.1.15,2013-02-17 19:42:00,
2013-02-17 13:48:00,43.6,13.4,30.24,WNW,299,4.0,13.0,29,0.00,,,0.00,Wunderground v.1.15,2013-02-17 19:48:00,
2013-02-17 13:53:00,44.3,13.2,30.24,NW,306,3.0,13.0,28,0.00,,,0.00,Wunderground v.1.15,2013-02-17 19:53:00,
2013-02-17 13:59:00,44.1,13.0,30.24,WNW,299,4.0,13.0,28,0.00,,,0.00,Wunderground v.1.15,2013-02-17 19:59:00,
2013-02-17 14:05:00,44.2,13.9,30.24,WNW,300,4.0,13.0,29,0.00,,,0.00,Wunderground v.1.15,2013-02-17 20:05:00,
2013-02-17 14:10:00,44.5,14.2,30.24,NW,307,4.0,4.0,29,0.00,,,0.00,Wunderground v.1.15,2013-02-17 20:10:00,
2013-02-17 14:16:00,44.6,15.0,30.24,WNW,300,4.0,13.0,30,0.00,,,0.00,Wunderground v.1.15,2013-02-17 20:16:00,
2013-02-17 14:21:00,45.3,14.1,30.24,West,271,4.0,13.0,28,0.00,,,0.00,Wunderground v.1.15,2013-02-17 20:21:00,
2013-02-17 14:27:00,45.1,14.7,30.24,NNW,339,4.0,13.0,29,0.00,,,0.00,Wunderground v.1.15,2013-02-17 20:27:00,
2013-02-17 14:33:00,44.8,14.4,30.24,NW,319,4.0,13.0,29,0.00,,,0.00,Wunderground v.1.15,2013-02-17 20:33:00,
2013-02-17 14:38:00,44.9,15.3,30.24,North,350,4.0,13.0,30,0.00,,,0.00,Wunderground v.1.15,2013-02-17 20:38:00,
2013-02-17 14:44:00,44.8,14.4,30.23,NNE,19,3.0,13.0,29,0.00,,,0.00,Wunderground v.1.15,2013-02-17 20:44:00,
2013-02-17 14:49:00,45.3,15.6,30.24,West,276,3.0,13.0,30,0.00,,,0.00,Wunderground v.1.15,2013-02-17 20:49:00,
2013-02-17 14:55:00,45.7,15.2,30.24,NW,306,2.0,13.0,29,0.00,,,0.00,Wunderground v.1.15,2013-02-17 20:55:00,
2013-02-17 15:00:00,46.0,15.5,30.24,WNW,298,2.0,2.0,29,0.00,,,0.00,Wunderground v.1.15,2013-02-17 21:00:00,
2013-02-17 15:06:00,46.0,15.5,30.24,NW,311,2.0,13.0,29,0.00,,,0.00,Wunderground v.1.15,2013-02-17 21:06:00,
2013-02-17 15:11:00,45.8,14.5,30.24,WNW,294,3.0,13.0,28,0.00,,,0.00,Wunderground v.1.15,2013-02-17 21:11:00,
2013-02-17 15:17:00,45.9,16.2,30.24,NNW,331,3.0,13.0,30,0.00,,,0.00,Wunderground v.1.15,2013-02-17 21:17:00,
2013-02-17 15:22:00,45.5,15.0,30.24,NNW,328,3.0,13.0,29,0.00,,,0.00,Wunderground v.1.15,2013-02-17 21:22:00,
2013-02-17 15:28:00,45.1,15.5,30.24,NW,310,4.0,13.0,30,0.00,,,0.00,Wunderground v.1.15,2013-02-17 21:28:00,
2013-02-17 15:33:00,44.9,15.3,30.24,WNW,283,4.0,13.0,30,0.00,,,0.00,Wunderground v.1.15,2013-02-17 21:33:00,
2013-02-17 15:39:00,45.7,16.7,30.24,WNW,294,2.0,13.0,31,0.00,,,0.00,Wunderground v.1.15,2013-02-17 21:39:00,
2013-02-17 15:44:00,46.0,15.5,30.24,WNW,299,2.0,13.0,29,0.00,,,0.00,Wunderground v.1.15,2013-02-17 21:44:00,
2013-02-17 15:50:00,45.9,15.4,30.24,WNW,282,3.0,3.0,29,0.00,,,0.00,Wunderground v.1.15,2013-02-17 21:50:00,
2013-02-17 15:55:00,46.0,14.7,30.24,West,272,3.0,13.0,28,0.00,,,0.00,Wunderground v.1.15,2013-02-17 21:55:00,
2013-02-17 16:01:00,45.6,15.9,30.24,NW,305,2.0,13.0,30,0.00,,,0.00,Wunderground v.1.15,2013-02-17 22:01:00,
2013-02-17 16:06:00,46.0,15.5,30.24,WNW,300,2.0,13.0,29,0.00,,,0.00,Wunderground v.1.15,2013-02-17 22:06:00,
2013-02-17 16:11:00,46.1,16.3,30.24,WNW,294,2.0,13.0,30,0.00,,,0.00,Wunderground v.1.15,2013-02-17 22:11:00,
2013-02-17 16:17:00,46.7,16.9,30.24,NW,314,1.0,13.0,30,0.00,,,0.00,Wunderground v.1.15,2013-02-17 22:17:00,
2013-02-17 16:22:00,46.0,16.3,30.23,West,273,1.0,13.0,30,0.00,,,0.00,Wunderground v.1.15,2013-02-17 22:22:00,
2013-02-17 16:28:00,44.9,15.3,30.24,West,274,2.0,13.0,30,0.00,,,0.00,Wunderground v.1.15,2013-02-17 22:28:00,
2013-02-17 16:33:00,44.4,14.9,30.24,West,278,3.0,13.0,30,0.00,,,0.00,Wunderground v.1.15,2013-02-17 22:33:00,
2013-02-17 16:39:00,44.3,15.5,30.24,West,272,3.0,13.0,31,0.00,,,0.00,Wunderground v.1.15,2013-02-17 22:39:00,
2013-02-17 16:44:00,44.0,15.3,30.24,WSW,252,4.0,13.0,31,0.00,,,0.00,Wunderground v.1.15,2013-02-17 22:44:00,
2013-02-17 16:49:00,43.7,15.0,30.24,WNW,283,3.0,13.0,31,0.00,,,0.00,Wunderground v.1.15,2013-02-17 22:49:00,
2013-02-17 16:55:00,43.4,15.5,30.24,WNW,287,2.0,13.0,32,0.00,,,0.00,Wunderground v.1.15,2013-02-17 22:55:00,
2013-02-17 17:00:00,43.3,15.4,30.24,WNW,288,1.0,13.0,32,0.00,,,0.00,Wunderground v.1.15,2013-02-17 23:00:00,
2013-02-17 17:06:00,42.9,15.7,30.24,West,270,1.0,13.0,33,0.00,,,0.00,Wunderground v.1.15,2013-02-17 23:06:00,
2013-02-17 17:11:00,42.6,15.5,30.24,WNW,292,1.0,13.0,33,0.00,,,0.00,Wunderground v.1.15,2013-02-17 23:11:00,
2013-02-17 17:17:00,42.3,15.9,30.24,WNW,292,1.0,13.0,34,0.00,,,0.00,Wunderground v.1.15,2013-02-17 23:17:00,
2013-02-17 17:22:00,42.0,16.3,30.24,WNW,296,1.0,13.0,35,0.00,,,0.00,Wunderground v.1.15,2013-02-17 23:22:00,
2013-02-17 17:28:00,41.7,16.0,30.25,WNW,294,1.0,13.0,35,0.00,,,0.00,Wunderground v.1.15,2013-02-17 23:28:00,
2013-02-17 17:33:00,41.6,15.9,30.24,WNW,294,1.0,13.0,35,0.00,,,0.00,Wunderground v.1.15,2013-02-17 23:33:00,
2013-02-17 17:38:00,41.4,16.4,30.25,WNW,290,1.0,13.0,36,0.00,,,0.00,Wunderground v.1.15,2013-02-17 23:38:00,
2013-02-17 17:44:00,41.1,16.1,30.24,WNW,299,1.0,13.0,36,0.00,,,0.00,Wunderground v.1.15,2013-02-17 23:44:00,
2013-02-17 17:50:00,41.0,16.7,30.25,WNW,285,1.0,1.0,37,0.00,,,0.00,Wunderground v.1.15,2013-02-17 23:50:00,
2013-02-17 17:55:00,41.0,16.7,30.25,WNW,285,1.0,13.0,37,0.00,,,0.00,Wunderground v.1.15,2013-02-17 23:55:00,
2013-02-17 18:01:00,40.8,16.5,30.25,WNW,283,1.0,13.0,37,0.00,,,0.00,Wunderground v.1.15,2013-02-18 00:01:00,
2013-02-17 18:06:00,40.6,16.9,30.25,West,281,1.0,13.0,38,0.00,,,0.00,Wunderground v.1.15,2013-02-18 00:06:00,
2013-02-17 18:12:00,40.5,16.9,30.25,West,276,1.0,13.0,38,0.00,,,0.00,Wunderground v.1.15,2013-02-18 00:12:00,
2013-02-17 18:17:00,40.4,16.8,30.25,West,280,1.0,13.0,38,0.00,,,0.00,Wunderground v.1.15,2013-02-18 00:17:00,
2013-02-17 18:23:00,40.2,17.2,30.25,WNW,285,1.0,13.0,39,0.00,,,0.00,Wunderground v.1.15,2013-02-18 00:23:00,
2013-02-17 18:28:00,39.7,16.7,30.25,WNW,285,0.0,13.0,39,0.00,,,0.00,Wunderground v.1.15,2013-02-18 00:28:00,
2013-02-17 18:34:00,38.9,16.6,30.25,WNW,285,0.0,13.0,40,0.00,,,0.00,Wunderground v.1.15,2013-02-18 00:34:00,
2013-02-17 18:40:00,38.5,16.8,30.25,West,281,1.0,1.0,41,0.00,,,0.00,Wunderground v.1.15,2013-02-18 00:40:00,
2013-02-17 18:45:00,38.5,16.8,30.25,West,278,1.0,13.0,41,0.00,,,0.00,Wunderground v.1.15,2013-02-18 00:45:00,
2013-02-17 18:51:00,38.5,16.8,30.25,West,279,1.0,13.0,41,0.00,,,0.00,Wunderground v.1.15,2013-02-18 00:51:00,
2013-02-17 18:56:00,38.7,17.5,30.25,WNW,285,1.0,13.0,42,0.00,,,0.00,Wunderground v.1.15,2013-02-18 00:56:00,
2013-02-17 19:02:00,38.9,17.2,30.25,West,278,1.0,13.0,41,0.00,,,0.00,Wunderground v.1.15,2013-02-18 01:02:00,
2013-02-17 19:07:00,38.5,17.4,30.26,West,279,1.0,13.0,42,0.00,,,0.00,Wunderground v.1.15,2013-02-18 01:07:00,
2013-02-17 19:13:00,37.7,17.2,30.25,West,280,0.0,13.0,43,0.00,,,0.00,Wunderground v.1.15,2013-02-18 01:13:00,
2013-02-17 19:18:00,37.1,17.2,30.25,WNW,285,0.0,13.0,44,0.00,,,0.00,Wunderground v.1.15,2013-02-18 01:18:00,
2013-02-17 19:24:00,36.9,17.5,30.25,WNW,292,0.0,13.0,45,0.00,,,0.00,Wunderground v.1.15,2013-02-18 01:24:00,
2013-02-17 19:29:00,36.9,17.5,30.26,WNW,297,0.0,13.0,45,0.00,,,0.00,Wunderground v.1.15,2013-02-18 01:29:00,
2013-02-17 19:35:00,37.1,17.7,30.26,WNW,297,0.0,13.0,45,0.00,,,0.00,Wunderground v.1.15,2013-02-18 01:35:00,
2013-02-17 19:40:00,36.7,17.3,30.26,WNW,298,1.0,13.0,45,0.00,,,0.00,Wunderground v.1.15,2013-02-18 01:40:00,
2013-02-17 19:46:00,37.0,17.6,30.26,WNW,298,1.0,13.0,45,0.00,,,0.00,Wunderground v.1.15,2013-02-18 01:46:00,
2013-02-17 19:51:00,37.1,17.7,30.26,WNW,297,1.0,13.0,45,0.00,,,0.00,Wunderground v.1.15,2013-02-18 01:51:00,
2013-02-17 19:57:00,36.5,17.7,30.26,West,276,1.0,13.0,46,0.00,,,0.00,Wunderground v.1.15,2013-02-18 01:57:00,
2013-02-17 20:02:00,35.3,17.1,30.26,West,281,1.0,13.0,47,0.00,,,0.00,Wunderground v.1.15,2013-02-18 02:02:00,
2013-02-17 20:08:00,34.9,17.7,30.26,West,281,0.0,13.0,49,0.00,,,0.00,Wunderground v.1.15,2013-02-18 02:08:00,
2013-02-17 20:13:00,34.9,17.7,30.26,West,281,0.0,13.0,49,0.00,,,0.00,Wunderground v.1.15,2013-02-18 02:13:00,
2013-02-17 20:19:00,34.8,17.6,30.26,West,281,1.0,13.0,49,0.00,,,0.00,Wunderground v.1.15,2013-02-18 02:19:00,
2013-02-17 20:24:00,34.5,17.8,30.26,WNW,282,1.0,13.0,50,0.00,,,0.00,Wunderground v.1.15,2013-02-18 02:24:00,
2013-02-17 20:30:00,34.5,17.8,30.27,WNW,282,0.0,13.0,50,0.00,,,0.00,Wunderground v.1.15,2013-02-18 02:30:00,
2013-02-17 20:36:00,34.4,18.1,30.27,WNW,282,0.0,13.0,51,0.00,,,0.00,Wunderground v.1.15,2013-02-18 02:36:00,
2013-02-17 20:41:00,34.6,18.3,30.27,West,280,0.0,13.0,51,0.00,,,0.00,Wunderground v.1.15,2013-02-18 02:41:00,
2013-02-17 20:46:00,34.5,18.7,30.27,West,280,0.0,13.0,52,0.00,,,0.00,Wunderground v.1.15,2013-02-18 02:46:00,
2013-02-17 20:52:00,33.8,18.9,30.27,West,280,1.0,13.0,54,0.00,,,0.00,Wunderground v.1.15,2013-02-18 02:52:00,
2013-02-17 20:57:00,33.8,18.9,30.27,West,280,1.0,13.0,54,0.00,,,0.00,Wunderground v.1.15,2013-02-18 02:57:00,
2013-02-17 21:03:00,34.2,18.8,30.27,WNW,283,1.0,13.0,53,0.00,,,0.00,Wunderground v.1.15,2013-02-18 03:03:00,
2013-02-17 21:08:00,34.1,18.7,30.27,West,281,1.0,13.0,53,0.00,,,0.00,Wunderground v.1.15,2013-02-18 03:08:00,
2013-02-17 21:14:00,34.0,19.1,30.27,WNW,282,1.0,13.0,54,0.00,,,0.00,Wunderground v.1.15,2013-02-18 03:14:00,
2013-02-17 21:19:00,33.8,18.9,30.27,WNW,282,0.0,13.0,54,0.00,,,0.00,Wunderground v.1.15,2013-02-18 03:19:00,
2013-02-17 21:25:00,33.2,18.8,30.28,WNW,285,0.0,13.0,55,0.00,,,0.00,Wunderground v.1.15,2013-02-18 03:25:00,
2013-02-17 21:30:00,32.8,18.4,30.28,WNW,285,0.0,13.0,55,0.00,,,0.00,Wunderground v.1.15,2013-02-18 03:30:00,
2013-02-17 21:35:00,32.5,18.9,30.28,WNW,285,0.0,13.0,57,0.00,,,0.00,Wunderground v.1.15,2013-02-18 03:35:00,
2013-02-17 21:41:00,32.5,18.9,30.28,WNW,285,0.0,13.0,57,0.00,,,0.00,Wunderground v.1.15,2013-02-18 03:41:00,
2013-02-17 21:46:00,32.7,19.1,30.28,WNW,285,0.0,13.0,57,0.00,,,0.00,Wunderground v.1.15,2013-02-18 03:46:00,
2013-02-17 21:52:00,32.5,18.9,30.28,WNW,285,0.0,13.0,57,0.00,,,0.00,Wunderground v.1.15,2013-02-18 03:52:00,
2013-02-17 21:57:00,32.1,19.0,30.28,WNW,285,0.0,13.0,58,0.00,,,0.00,Wunderground v.1.15,2013-02-18 03:57:00,
2013-02-17 22:03:00,31.7,19.0,30.28,WNW,285,0.0,13.0,59,0.00,,,0.00,Wunderground v.1.15,2013-02-18 04:03:00,
2013-02-17 22:08:00,31.5,19.6,30.28,WNW,285,0.0,13.0,61,0.00,,,0.00,Wunderground v.1.15,2013-02-18 04:08:00,
2013-02-17 22:14:00,31.2,19.3,30.28,WNW,285,0.0,13.0,61,0.00,,,0.00,Wunderground v.1.15,2013-02-18 04:14:00,
2013-02-17 22:19:00,30.7,19.2,30.28,WNW,285,0.0,13.0,62,0.00,,,0.00,Wunderground v.1.15,2013-02-18 04:19:00,
2013-02-17 22:24:00,30.2,19.1,30.27,WNW,285,0.0,13.0,63,0.00,,,0.00,Wunderground v.1.15,2013-02-18 04:24:00,
2013-02-17 22:30:00,30.4,19.3,30.27,WNW,285,0.0,13.0,63,0.00,,,0.00,Wunderground v.1.15,2013-02-18 04:30:00,
2013-02-17 22:36:00,30.9,19.8,30.28,WNW,285,0.0,13.0,63,0.00,,,0.00,Wunderground v.1.15,2013-02-18 04:36:00,
2013-02-17 22:41:00,30.9,19.8,30.27,WNW,287,0.0,13.0,63,0.00,,,0.00,Wunderground v.1.15,2013-02-18 04:41:00,
2013-02-17 22:47:00,30.6,19.5,30.27,WNW,286,0.0,13.0,63,0.00,,,0.00,Wunderground v.1.15,2013-02-18 04:47:00,
2013-02-17 22:52:00,30.4,19.3,30.27,WNW,286,0.0,13.0,63,0.00,,,0.00,Wunderground v.1.15,2013-02-18 04:52:00,
2013-02-17 22:58:00,30.2,19.8,30.27,WNW,290,0.0,13.0,65,0.00,,,0.00,Wunderground v.1.15,2013-02-18 04:58:00,
2013-02-17 23:00:00,30.3,19.9,30.27,WNW,290,0.0,13.0,65,0.00,,,0.00,Wunderground v.1.15,2013-02-18 05:00:00,
2013-02-17 23:01:00,30.3,19.9,30.27,WNW,290,0.0,13.0,65,0.00,,,0.00,Wunderground v.1.15,2013-02-18 05:01:00,
2013-02-17 23:03:00,30.4,20.0,30.27,WNW,290,0.0,13.0,65,0.00,,,0.00,Wunderground v.1.15,2013-02-18 05:03:00,
2013-02-17 23:05:00,30.5,20.1,30.27,WNW,290,0.0,13.0,65,0.00,,,0.00,Wunderground v.1.15,2013-02-18 05:05:00,
2013-02-17 23:10:00,30.4,20.0,30.27,WNW,290,0.0,13.0,65,0.00,,,0.00,Wunderground v.1.15,2013-02-18 05:10:00,
2013-02-17 23:15:00,30.1,19.7,30.27,WNW,290,0.0,13.0,65,0.00,,,0.00,Wunderground v.1.15,2013-02-18 05:15:00,
2013-02-17 23:21:00,29.7,19.7,30.28,WNW,290,0.0,13.0,66,0.00,,,0.00,Wunderground v.1.15,2013-02-18 05:21:00,
2013-02-17 23:26:00,29.6,19.3,30.28,WNW,290,0.0,13.0,65,0.00,,,0.00,Wunderground v.1.15,2013-02-18 05:26:00,
2013-02-17 23:32:00,29.6,19.6,30.28,WNW,290,0.0,13.0,66,0.00,,,0.00,Wunderground v.1.15,2013-02-18 05:32:00,
2013-02-17 23:37:00,29.4,19.4,30.28,WNW,290,0.0,13.0,66,0.00,,,0.00,Wunderground v.1.15,2013-02-18 05:37:00,
2013-02-17 23:43:00,29.3,19.7,30.28,WNW,290,0.0,13.0,67,0.00,,,0.00,Wunderground v.1.15,2013-02-18 05:43:00,
2013-02-17 23:48:00,29.2,19.6,30.28,WNW,290,0.0,13.0,67,0.00,,,0.00,Wunderground v.1.15,2013-02-18 05:48:00,
2013-02-17 23:54:00,28.8,19.2,30.28,WNW,290,0.0,13.0,67,0.00,,,0.00,Wunderground v.1.15,2013-02-18 05:54:00,
2013-02-17 23:59:00,28.6,19.4,30.28,WNW,290,0.0,13.0,68,0.00,,,0.00,Wunderground v.1.15,2013-02-18 05:59:00,